Partly Cloudy Current Weather (METAR) For Cancun Airport

All times on the weather descriptions are local

Observed at 23:46 - (29 mins ago)

Partly Cloudy

27°C

Partly Cloudy
Clouds: Scattered Clouds at 1,500ft
Wind: 140° at 12 knots
Visibility: 7 statute miles
QNH:
Dew Point: 25°C
Runway in Use: Runway 12

Sunrise Today: 06:17
Sunset Today: 19:12

Forecast Weather (TAF) For Cancun Airport

Issued at 19:00 - (1 day 18 hrs ago)


Runway in Use: Unable to determine, wind is clam

Forecast valid until 19:00 on Wednesday

METAR/TAF RAW METAR / TAF

MMUN 280446Z 14012KT 7SM SCT015 27/25 A2975 RMK 8/500

Weather Widget

Put weather from any of our airports on your website with our weather widget.

Find Another Search

Airport Search


Please Wait Please Wait - Loading
Close
Close

Login

Username:

Password:

Remember Me:

Remember me on this computer

Forgotten your password? Get a reset password sent to your registered e-mail address

Close

User Private Message

Subject:

Message: